createdAt,value
2018-01-11T00:00:30.798Z,38.13
2018-01-11T00:02:59.064Z,36.70
2018-01-11T00:05:26.562Z,39.40
2018-01-11T00:07:54.082Z,35.43
2018-01-11T00:10:21.578Z,42.43
2018-01-11T00:12:49.093Z,36.30
2018-01-11T00:15:16.594Z,35.70
2018-01-11T00:17:44.113Z,35.77
2018-01-11T00:20:11.605Z,39.67
2018-01-11T00:22:39.106Z,39.60
2018-01-11T00:25:06.621Z,39.77
2018-01-11T00:27:34.881Z,36.27
2018-01-11T00:30:02.774Z,32.20
2018-01-11T00:32:30.266Z,34.40
2018-01-11T00:34:57.762Z,41.53
2018-01-11T00:37:25.283Z,37.33
2018-01-11T00:39:52.773Z,32.27
2018-01-11T00:42:20.290Z,36.10
2018-01-11T00:44:47.786Z,32.80
2018-01-11T00:47:15.307Z,32.57
2018-01-11T00:49:42.801Z,34.40
2018-01-11T00:52:10.325Z,32.30
2018-01-11T00:54:37.813Z,36.63
2018-01-11T00:57:05.306Z,34.17
2018-01-11T00:59:32.827Z,33.27
2018-01-11T01:02:00.318Z,28.63
2018-01-11T01:04:28.602Z,32.90
2018-01-11T01:06:56.862Z,32.37
2018-01-11T01:09:25.146Z,31.30
2018-01-11T01:11:53.413Z,33.50
2018-01-11T01:14:21.690Z,34.80
2018-01-11T01:16:49.954Z,30.23
2018-01-11T01:19:17.485Z,36.17
2018-01-11T01:21:44.983Z,30.40
2018-01-11T01:24:13.238Z,33.60
2018-01-11T01:26:40.758Z,29.80
2018-01-11T01:29:08.253Z,36.57
2018-01-11T01:31:35.774Z,35.93
2018-01-11T01:34:03.274Z,36.70
2018-01-11T01:36:30.774Z,32.17
2018-01-11T01:38:58.289Z,34.30
2018-01-11T01:41:25.777Z,34.93
2018-01-11T01:43:54.058Z,29.10
2018-01-11T01:46:22.326Z,31.93
2018-01-11T01:48:50.610Z,33.30
2018-01-11T01:51:18.874Z,31.40
2018-01-11T01:53:47.137Z,30.80
2018-01-11T01:56:14.654Z,30.50
2018-01-11T01:58:42.145Z,33.73
2018-01-11T02:01:09.662Z,29.70
2018-01-11T02:03:37.161Z,31.73
2018-01-11T02:06:04.657Z,27.83
2018-01-11T02:08:32.177Z,32.47
2018-01-11T02:10:59.678Z,27.70
2018-01-11T02:13:27.198Z,28.53
2018-01-11T02:15:54.698Z,33.80
2018-01-11T02:18:22.224Z,27.50
2018-01-11T02:20:49.713Z,29.67
2018-01-11T02:23:17.206Z,29.60
2018-01-11T02:25:44.722Z,32.40
2018-01-11T02:28:12.986Z,27.90
2018-01-11T02:30:41.270Z,28.30
2018-01-11T02:33:09.530Z,27.47
2018-01-11T02:35:37.046Z,27.93
2018-01-11T02:38:04.563Z,31.33
2018-01-11T02:40:32.826Z,27.53
2018-01-11T02:43:01.110Z,29.20
2018-01-11T02:45:29.370Z,28.03
2018-01-11T02:47:56.881Z,34.27
2018-01-11T02:50:24.373Z,27.73
2018-01-11T02:52:51.893Z,29.03
2018-01-11T02:55:19.390Z,26.10
2018-01-11T02:57:46.910Z,29.23
2018-01-11T03:00:14.414Z,26.07
2018-01-11T03:02:41.919Z,29.10
2018-01-11T03:05:09.441Z,28.57
2018-01-11T03:07:36.934Z,25.57
2018-01-11T03:10:04.458Z,25.70
2018-01-11T03:12:31.954Z,26.80
2018-01-11T03:14:59.469Z,28.23
2018-01-11T03:17:26.961Z,27.67
2018-01-11T03:19:54.475Z,28.67
2018-01-11T03:22:21.973Z,27.70
2018-01-11T03:24:50.232Z,26.57
2018-01-11T03:27:18.514Z,24.17
2018-01-11T03:29:46.773Z,26.03
2018-01-11T03:32:14.290Z,25.00
2018-01-11T03:34:41.790Z,28.50
2018-01-11T03:37:09.312Z,24.00
2018-01-11T03:39:36.806Z,28.00
2018-01-11T03:42:04.326Z,21.97
2018-01-11T03:44:31.826Z,26.00
2018-01-11T03:46:59.329Z,24.90
2018-01-11T03:49:26.854Z,24.70
2018-01-11T03:51:55.119Z,26.40
2018-01-11T03:54:22.642Z,26.07
2018-01-11T03:56:50.146Z,25.90
2018-01-11T03:59:18.438Z,25.10
2018-01-11T04:01:46.702Z,25.60
2018-01-11T04:04:14.227Z,22.03
2018-01-11T04:06:41.726Z,23.80
2018-01-11T04:09:10.017Z,22.77
2018-01-11T04:11:37.527Z,23.53
2018-01-11T04:14:05.028Z,21.97
2018-01-11T04:16:32.554Z,26.03
2018-01-11T04:19:00.056Z,23.63
2018-01-11T04:21:27.578Z,23.27
2018-01-11T04:23:55.078Z,24.63
2018-01-11T04:26:22.606Z,19.03
2018-01-11T04:28:50.870Z,23.73
2018-01-11T04:31:18.394Z,21.20
2018-01-11T04:33:45.894Z,24.47
2018-01-11T04:36:14.159Z,21.27
2018-01-11T04:38:41.684Z,21.30
2018-01-11T04:41:09.183Z,22.53
2018-01-11T04:43:36.714Z,22.13
2018-01-11T04:46:04.982Z,20.97
2018-01-11T04:48:32.503Z,17.80
2018-01-11T04:51:00.003Z,19.97
2018-01-11T04:53:27.531Z,19.13
2018-01-11T04:55:55.036Z,22.10
2018-01-11T04:58:22.534Z,26.10
2018-01-11T05:00:54.555Z,21.30
2018-01-11T05:03:22.054Z,23.30
2018-01-11T05:05:50.349Z,23.03
2018-01-11T05:08:17.849Z,23.97
2018-01-11T05:10:46.142Z,20.80
2018-01-11T05:13:13.642Z,19.50
2018-01-11T05:15:41.166Z,21.80
2018-01-11T05:18:08.666Z,23.37
2018-01-11T05:20:36.167Z,25.37
2018-01-11T05:23:03.690Z,28.40
2018-01-11T05:25:31.194Z,28.73
2018-01-11T05:27:58.714Z,25.33
2018-01-11T05:30:26.219Z,21.90
2018-01-11T05:32:54.507Z,20.47
2018-01-11T05:35:22.770Z,19.43
2018-01-11T05:37:51.062Z,30.60
2018-01-11T05:40:18.563Z,23.57
2018-01-11T05:42:46.091Z,21.00
2018-01-11T05:45:13.590Z,21.63
2018-01-11T05:47:41.863Z,20.13
2018-01-11T05:50:09.388Z,20.03
2018-01-11T05:52:36.894Z,20.27
2018-01-11T05:55:04.424Z,18.20
2018-01-11T05:57:31.922Z,19.37
2018-01-11T05:59:59.442Z,20.73
2018-01-11T06:02:26.944Z,21.27
2018-01-11T06:04:54.470Z,21.97
2018-01-11T06:07:21.975Z,23.33
2018-01-11T06:09:50.246Z,23.03
2018-01-11T06:12:18.535Z,19.57
2018-01-11T06:14:46.799Z,18.20
2018-01-11T06:17:15.086Z,18.97
2018-01-11T06:19:43.350Z,20.97
2018-01-11T06:22:10.871Z,25.53
2018-01-11T06:24:38.375Z,24.67
2018-01-11T06:27:06.667Z,18.80
2018-01-11T06:29:34.166Z,17.80
2018-01-11T06:32:01.665Z,20.53
2018-01-11T06:34:30.010Z,21.27
2018-01-11T06:36:57.474Z,21.03
2018-01-11T06:39:25.326Z,21.17
2018-01-11T06:41:53.595Z,19.20
2018-01-11T06:44:21.130Z,22.90
2018-01-11T06:46:48.636Z,17.40
2018-01-11T06:49:16.162Z,20.20
2018-01-11T06:51:43.664Z,20.20
2018-01-11T06:54:11.167Z,21.60
2018-01-11T06:56:38.690Z,23.30
2018-01-11T06:59:06.954Z,20.63
2018-01-11T07:01:34.478Z,20.23
2018-01-11T07:04:01.975Z,18.60
2018-01-11T07:06:29.503Z,20.30
2018-01-11T07:08:57.007Z,22.40
2018-01-11T07:11:25.270Z,16.37
2018-01-11T07:13:53.563Z,20.73
2018-01-11T07:16:21.831Z,20.17
2018-01-11T07:18:50.119Z,20.53
2018-01-11T07:21:18.383Z,18.83
2018-01-11T07:23:46.675Z,22.13
2018-01-11T07:26:14.175Z,21.93
2018-01-11T07:28:41.726Z,19.87
2018-01-11T07:31:09.219Z,18.73
2018-01-11T07:33:36.724Z,19.23
2018-01-11T07:36:04.251Z,26.57
2018-01-11T07:38:32.522Z,20.03
2018-01-11T07:41:00.049Z,19.03
2018-01-11T07:43:27.551Z,22.40
2018-01-11T07:45:55.839Z,22.63
2018-01-11T07:48:23.342Z,19.93
2018-01-11T07:50:50.862Z,21.43
2018-01-11T07:53:18.366Z,19.10
2018-01-11T07:55:45.871Z,21.60
2018-01-11T07:58:13.400Z,20.93
2018-01-11T08:00:40.905Z,24.03
2018-01-11T08:03:08.426Z,75.57
2018-01-11T08:05:36.702Z,137.63
2018-01-11T08:08:04.227Z,72.70
2018-01-11T08:10:31.726Z,68.23
2018-01-11T08:12:59.991Z,44.83
2018-01-11T08:15:27.514Z,49.80
2018-01-11T08:17:55.015Z,25.73
2018-01-11T08:20:23.303Z,24.80
2018-01-11T08:22:51.567Z,22.10
2018-01-11T08:25:19.854Z,22.93
2018-01-11T08:27:48.298Z,23.30
2018-01-11T08:30:15.807Z,22.60
2018-01-11T08:32:44.302Z,19.13
2018-01-11T08:35:11.807Z,22.50
2018-01-11T08:37:39.331Z,20.67
2018-01-11T08:40:06.836Z,24.47
2018-01-11T08:42:35.127Z,23.00
2018-01-11T08:45:03.394Z,22.67
2018-01-11T08:47:31.662Z,21.97
2018-01-11T08:49:59.186Z,23.67
2018-01-11T08:52:26.682Z,24.57
2018-01-11T08:54:54.980Z,28.00
2018-01-11T08:57:22.478Z,30.77
2018-01-11T08:59:50.003Z,23.50
2018-01-11T09:02:17.502Z,24.60
2018-01-11T09:04:44.998Z,25.17
2018-01-11T09:07:13.291Z,22.57
2018-01-11T09:09:40.791Z,25.00
2018-01-11T09:12:08.316Z,21.13
2018-01-11T09:14:35.830Z,26.57
2018-01-11T09:17:04.130Z,25.30
2018-01-11T09:19:32.396Z,22.20
2018-01-11T09:21:59.894Z,22.87
2018-01-11T09:24:27.415Z,24.50
2018-01-11T09:26:55.683Z,27.20
2018-01-11T09:29:24.548Z,23.97
2018-01-11T09:31:52.055Z,26.30
2018-01-11T09:34:20.348Z,25.67
2018-01-11T09:36:47.852Z,23.87
2018-01-11T09:39:15.356Z,25.30
2018-01-11T09:41:42.885Z,25.13
2018-01-11T09:44:10.386Z,22.87
2018-01-11T09:46:37.908Z,24.20
2018-01-11T09:49:06.176Z,22.37
2018-01-11T09:51:33.699Z,26.10
2018-01-11T09:54:01.199Z,28.90
2018-01-11T09:56:29.470Z,23.07
2018-01-11T09:58:56.990Z,27.57
2018-01-11T10:01:24.490Z,22.93
2018-01-11T10:03:52.011Z,24.40
2018-01-11T10:06:19.511Z,24.83
2018-01-11T10:08:47.798Z,24.20
2018-01-11T10:11:15.299Z,23.47
2018-01-11T10:13:42.803Z,27.33
2018-01-11T10:16:11.090Z,24.23
2018-01-11T10:18:39.358Z,24.93
2018-01-11T10:21:07.653Z,25.73
2018-01-11T10:23:35.166Z,27.70
2018-01-11T10:26:02.686Z,25.80
2018-01-11T10:28:30.191Z,28.37
2018-01-11T10:30:57.727Z,26.97
2018-01-11T10:33:25.227Z,30.27
2018-01-11T10:35:53.491Z,29.07
2018-01-11T10:38:21.014Z,26.93
2018-01-11T10:40:48.514Z,25.47
2018-01-11T10:43:16.081Z,27.67
2018-01-11T10:45:43.563Z,29.90
2018-01-11T10:48:11.088Z,27.63
2018-01-11T10:50:39.358Z,33.80
2018-01-11T10:53:06.883Z,31.80
2018-01-11T10:55:34.386Z,28.70
2018-01-11T10:58:01.892Z,34.83
2018-01-11T11:00:35.183Z,29.43
2018-01-11T11:03:02.691Z,31.63
2018-01-11T11:05:30.218Z,36.30
2018-01-11T11:07:57.726Z,33.63
2018-01-11T11:10:26.020Z,31.17
2018-01-11T11:12:53.523Z,34.50
2018-01-11T11:15:21.052Z,36.47
2018-01-11T11:17:48.550Z,30.10
2018-01-11T11:20:16.050Z,33.20
2018-01-11T11:22:43.579Z,32.97
2018-01-11T11:25:11.080Z,34.30
2018-01-11T11:27:38.602Z,32.73
2018-01-11T11:30:06.866Z,29.57
2018-01-11T11:32:34.394Z,35.23
2018-01-11T11:35:01.894Z,32.97
2018-01-11T11:37:30.158Z,33.93
2018-01-11T11:39:57.683Z,35.40
2018-01-11T11:42:25.186Z,30.10
2018-01-11T11:44:53.473Z,40.57
2018-01-11T11:47:21.734Z,32.37
2018-01-11T11:49:49.258Z,37.93
2018-01-11T11:52:16.759Z,74.43
2018-01-11T11:54:45.055Z,78.20
2018-01-11T11:57:12.555Z,34.30
2018-01-11T11:59:40.050Z,32.87
2018-01-11T12:02:07.580Z,31.50
2018-01-11T12:04:35.095Z,33.53
2018-01-11T12:07:02.623Z,28.90
2018-01-11T12:09:30.122Z,32.23
2018-01-11T12:11:57.647Z,30.63
2018-01-11T12:14:25.911Z,30.10
2018-01-11T12:16:53.438Z,28.77
2018-01-11T12:19:20.935Z,32.47
2018-01-11T12:21:48.443Z,33.60
2018-01-11T12:24:15.971Z,29.30
2018-01-11T12:26:44.242Z,31.37
2018-01-11T12:29:12.530Z,29.03
2018-01-11T12:31:40.039Z,29.50
2018-01-11T12:34:07.566Z,28.57
2018-01-11T12:36:35.070Z,30.23
2018-01-11T12:39:03.344Z,30.87
2018-01-11T12:41:31.650Z,28.63
2018-01-11T12:43:59.918Z,32.60
2018-01-11T12:46:28.214Z,28.63
2018-01-11T12:48:55.727Z,27.20
2018-01-11T12:51:23.249Z,28.83
2018-01-11T12:53:50.755Z,27.60
2018-01-11T12:56:18.265Z,29.47
2018-01-11T12:58:45.803Z,30.50
2018-01-11T13:01:13.311Z,30.07
2018-01-11T13:03:40.837Z,34.00
2018-01-11T13:06:08.342Z,32.10
2018-01-11T13:08:35.875Z,31.13
2018-01-11T13:11:03.383Z,28.83
2018-01-11T13:13:31.679Z,29.43
2018-01-11T13:15:59.187Z,28.30
2018-01-11T13:18:26.686Z,30.03
2018-01-11T13:20:54.979Z,30.43
2018-01-11T13:23:22.491Z,31.67
2018-01-11T13:25:51.527Z,28.20
2018-01-11T13:28:19.037Z,32.90
2018-01-11T13:30:47.347Z,33.13
2018-01-11T13:33:15.624Z,28.37
2018-01-11T13:35:43.143Z,30.67
2018-01-11T13:38:10.669Z,32.50
2018-01-11T13:40:38.195Z,32.27
2018-01-11T13:43:06.483Z,33.57
2018-01-11T13:45:33.983Z,31.53
2018-01-11T13:48:01.511Z,29.80
2018-01-11T13:50:29.021Z,31.83
2018-01-11T13:52:56.522Z,34.97
2018-01-11T13:55:24.044Z,29.17
2018-01-11T13:57:51.547Z,35.83
2018-01-11T14:00:19.070Z,37.90
2018-01-11T14:02:46.571Z,36.97
2018-01-11T14:05:14.095Z,33.10
2018-01-11T14:07:42.363Z,34.97
2018-01-11T14:10:09.863Z,34.80
2018-01-11T14:12:37.391Z,37.13
2018-01-11T14:15:05.657Z,34.47
2018-01-11T14:17:33.946Z,36.43
2018-01-11T14:20:02.222Z,38.97
2018-01-11T14:22:30.518Z,36.57
2018-01-11T14:24:58.018Z,35.40
2018-01-11T14:27:25.527Z,34.30
2018-01-11T14:29:53.815Z,34.67
2018-01-11T14:32:21.314Z,34.97
2018-01-11T14:34:48.835Z,37.57
2018-01-11T14:37:16.335Z,36.37
2018-01-11T14:39:43.858Z,38.97
2018-01-11T14:42:11.360Z,33.47
2018-01-11T14:44:38.859Z,36.80
2018-01-11T14:47:06.387Z,37.63
2018-01-11T14:49:33.891Z,35.43
2018-01-11T14:52:01.415Z,34.70
2018-01-11T14:54:29.683Z,39.93
2018-01-11T14:56:57.207Z,43.30
2018-01-11T14:59:25.576Z,39.27
2018-01-11T15:01:53.103Z,42.40
2018-01-11T15:04:20.602Z,35.70
2018-01-11T15:06:48.111Z,41.53
2018-01-11T15:09:16.402Z,36.80
2018-01-11T15:11:43.907Z,39.13
2018-01-11T15:14:11.431Z,45.40
2018-01-11T15:16:38.931Z,39.40
2018-01-11T15:19:06.454Z,38.80
2018-01-11T15:21:33.978Z,40.10
2018-01-11T15:24:02.267Z,38.77
2018-01-11T15:26:29.767Z,39.40
2018-01-11T15:28:57.271Z,46.37
2018-01-11T15:31:25.563Z,38.80
2018-01-11T15:33:53.066Z,37.77
2018-01-11T15:36:20.595Z,39.03
2018-01-11T15:38:48.094Z,36.03
2018-01-11T15:41:15.619Z,36.10
2018-01-11T15:43:43.120Z,39.10
2018-01-11T15:46:10.618Z,39.90
2018-01-11T15:48:38.143Z,39.93
2018-01-11T15:51:05.643Z,43.67
2018-01-11T15:53:33.162Z,39.90
2018-01-11T15:56:01.427Z,42.90
2018-01-11T15:58:28.950Z,43.40
2018-01-11T16:00:56.454Z,41.13
2018-01-11T16:03:24.723Z,38.07
2018-01-11T16:05:52.247Z,42.07
2018-01-11T16:08:19.746Z,39.00
2018-01-11T16:10:48.034Z,39.50
2018-01-11T16:13:16.307Z,39.40
2018-01-11T16:15:44.599Z,42.03
2018-01-11T16:18:12.099Z,45.10
2018-01-11T16:20:39.618Z,38.27
2018-01-11T16:23:07.118Z,43.70
2018-01-11T16:25:34.614Z,38.30
2018-01-11T16:28:02.903Z,41.90
2018-01-11T16:30:31.174Z,41.00
2018-01-11T16:32:58.698Z,41.00
2018-01-11T16:35:26.199Z,38.37
2018-01-11T16:37:53.722Z,43.57
2018-01-11T16:40:21.218Z,36.97
2018-01-11T16:42:48.742Z,34.70
2018-01-11T16:45:16.243Z,37.97
2018-01-11T16:47:43.742Z,44.70
2018-01-11T16:50:11.314Z,39.97
2018-01-11T16:52:38.823Z,45.30
2018-01-11T16:55:06.350Z,37.57
2018-01-11T16:57:34.622Z,39.97
2018-01-11T17:00:02.922Z,40.07
2018-01-11T17:02:30.481Z,41.57
2018-01-11T17:04:57.943Z,38.17
2018-01-11T17:07:25.466Z,128.93
2018-01-11T17:09:52.967Z,75.03
2018-01-11T17:12:20.495Z,59.50
2018-01-11T17:14:48.762Z,37.13
2018-01-11T17:17:16.282Z,45.50
2018-01-11T17:19:43.787Z,39.40
2018-01-11T17:22:12.062Z,43.83
2018-01-11T17:24:40.355Z,43.17
2018-01-11T17:27:08.623Z,37.10
2018-01-11T17:29:36.911Z,44.90
2018-01-11T17:32:05.174Z,43.87
2018-01-11T17:34:33.463Z,53.60
2018-01-11T17:37:00.971Z,40.70
2018-01-11T17:39:28.470Z,38.73
2018-01-11T17:41:56.758Z,38.87
2018-01-11T17:44:24.259Z,41.17
2018-01-11T17:46:51.788Z,42.80
2018-01-11T17:49:19.286Z,53.23
2018-01-11T17:51:46.807Z,46.57
2018-01-11T17:54:14.313Z,43.03
2018-01-11T17:56:41.810Z,43.03
2018-01-11T17:59:09.357Z,41.27
2018-01-11T18:01:37.615Z,41.37
2018-01-11T18:04:05.145Z,44.63
2018-01-11T18:06:32.657Z,40.20
2018-01-11T18:09:00.947Z,46.40
2018-01-11T18:11:28.449Z,47.57
2018-01-11T18:13:55.946Z,50.87
2018-01-11T18:16:24.234Z,52.47
2018-01-11T18:18:51.758Z,45.80
2018-01-11T18:21:19.264Z,47.00
2018-01-11T18:23:46.791Z,50.37
2018-01-11T18:26:15.079Z,48.30
2018-01-11T18:28:43.346Z,44.80
2018-01-11T18:31:11.693Z,46.70
2018-01-11T18:33:39.150Z,42.50
2018-01-11T18:36:06.678Z,46.67
2018-01-11T18:38:34.175Z,44.27
2018-01-11T18:41:01.699Z,42.07
2018-01-11T18:43:29.202Z,43.80
2018-01-11T18:45:56.703Z,51.10
2018-01-11T18:48:24.227Z,44.47
2018-01-11T18:50:52.499Z,47.97
2018-01-11T18:53:20.022Z,47.63
2018-01-11T18:55:47.522Z,39.83
2018-01-11T18:58:15.810Z,44.67
2018-01-11T19:00:44.075Z,44.23
2018-01-11T19:03:12.343Z,42.87
2018-01-11T19:05:39.867Z,47.13
2018-01-11T19:08:07.366Z,43.00
2018-01-11T19:10:35.655Z,48.30
2018-01-11T19:13:03.922Z,47.00
2018-01-11T19:15:32.211Z,43.13
2018-01-11T19:18:00.483Z,46.63
2018-01-11T19:20:28.775Z,42.80
2018-01-11T19:22:56.279Z,43.60
2018-01-11T19:25:23.774Z,53.00
2018-01-11T19:27:51.307Z,50.53
2018-01-11T19:30:18.807Z,48.27
2018-01-11T19:32:46.331Z,42.10
2018-01-11T19:35:13.831Z,52.73
2018-01-11T19:37:41.355Z,50.17
2018-01-11T19:40:08.855Z,51.80
2018-01-11T19:42:36.358Z,52.20
2018-01-11T19:45:03.891Z,57.57
2018-01-11T19:47:31.391Z,47.33
2018-01-11T19:49:59.683Z,46.37
2018-01-11T19:52:27.206Z,44.60
2018-01-11T19:54:54.758Z,50.87
2018-01-11T19:57:22.258Z,45.00
2018-01-11T19:59:50.546Z,47.90
2018-01-11T20:02:18.047Z,51.07
2018-01-11T20:04:45.551Z,49.37
2018-01-11T20:07:13.856Z,54.70
2018-01-11T20:09:41.364Z,47.63
2018-01-11T20:12:08.887Z,47.17
2018-01-11T20:14:36.388Z,52.50
2018-01-11T20:17:04.680Z,49.83
2018-01-11T20:19:32.190Z,57.13
2018-01-11T20:21:59.719Z,51.73
2018-01-11T20:24:27.225Z,51.47
2018-01-11T20:26:54.746Z,54.13
2018-01-11T20:29:22.275Z,49.00
2018-01-11T20:31:50.539Z,49.23
2018-01-11T20:34:18.827Z,47.83
2018-01-11T20:36:47.094Z,49.47
2018-01-11T20:39:15.387Z,51.70
2018-01-11T20:41:42.891Z,55.20
2018-01-11T20:44:10.415Z,48.20
2018-01-11T20:46:37.918Z,53.60
2018-01-11T20:49:05.418Z,43.03
2018-01-11T20:51:32.942Z,53.37
2018-01-11T20:54:00.448Z,50.67
2018-01-11T20:56:27.971Z,44.87
2018-01-11T20:58:55.478Z,49.77
2018-01-11T21:01:23.034Z,47.97
2018-01-11T21:03:50.543Z,50.07
2018-01-11T21:06:18.062Z,50.20
2018-01-11T21:08:45.587Z,48.80
2018-01-11T21:11:13.086Z,54.57
2018-01-11T21:13:40.611Z,47.23
2018-01-11T21:16:08.137Z,49.93
2018-01-11T21:18:35.654Z,47.93
2018-01-11T21:21:04.021Z,46.73
2018-01-11T21:23:31.547Z,58.67
2018-01-11T21:25:59.810Z,53.23
2018-01-11T21:28:27.335Z,54.70
2018-01-11T21:30:54.834Z,49.17
2018-01-11T21:33:23.094Z,51.33
2018-01-11T21:35:50.619Z,52.03
2018-01-11T21:38:18.119Z,53.40
2018-01-11T21:40:45.647Z,48.20
2018-01-11T21:43:13.150Z,53.97
2018-01-11T21:45:41.414Z,58.33
2018-01-11T21:48:08.935Z,51.53
2018-01-11T21:50:36.438Z,55.27
2018-01-11T21:53:04.735Z,49.93
2018-01-11T21:55:32.234Z,46.10
2018-01-11T21:57:59.754Z,47.83
2018-01-11T22:00:27.255Z,47.80
2018-01-11T22:02:54.756Z,51.77
2018-01-11T22:05:23.047Z,44.73
2018-01-11T22:07:50.545Z,52.10
2018-01-11T22:10:18.067Z,48.50
2018-01-11T22:12:45.570Z,44.30
2018-01-11T22:15:13.077Z,52.77
2018-01-11T22:17:40.602Z,51.00
2018-01-11T22:20:08.099Z,48.53
2018-01-11T22:22:35.619Z,45.87
2018-01-11T22:25:03.121Z,48.30
2018-01-11T22:27:30.646Z,50.10
2018-01-11T22:29:58.915Z,42.00
2018-01-11T22:32:26.415Z,46.60
2018-01-11T22:34:53.934Z,45.77
2018-01-11T22:37:21.434Z,43.93
2018-01-11T22:39:48.958Z,48.33
2018-01-11T22:42:17.223Z,52.27
2018-01-11T22:44:44.746Z,48.10
2018-01-11T22:47:12.246Z,45.00
2018-01-11T22:49:39.751Z,47.53
2018-01-11T22:52:07.279Z,47.50
2018-01-11T22:54:35.543Z,49.17
2018-01-11T22:57:03.835Z,45.27
2018-01-11T22:59:32.106Z,52.00
2018-01-11T23:02:00.395Z,45.10
2018-01-11T23:04:27.898Z,49.23
2018-01-11T23:06:55.425Z,45.37
2018-01-11T23:09:22.922Z,47.03
2018-01-11T23:11:50.423Z,44.73
2018-01-11T23:14:18.710Z,48.43
2018-01-11T23:16:46.218Z,44.43
2018-01-11T23:19:13.747Z,41.60
2018-01-11T23:21:41.296Z,46.40
2018-01-11T23:24:09.558Z,44.07
2018-01-11T23:26:37.353Z,46.90
2018-01-11T23:29:05.166Z,44.00
2018-01-11T23:31:33.447Z,46.23
2018-01-11T23:34:01.711Z,46.60
2018-01-11T23:36:29.230Z,44.77
2018-01-11T23:38:56.731Z,42.63
2018-01-11T23:41:25.027Z,52.40
2018-01-11T23:43:53.295Z,46.00
2018-01-11T23:46:21.588Z,41.37
2018-01-11T23:48:49.094Z,43.97
2018-01-11T23:51:17.388Z,44.50
2018-01-11T23:53:44.899Z,48.00
2018-01-11T23:56:12.403Z,44.63
2018-01-11T23:58:39.930Z,46.97
